Time;durP1;ratioP1;P1;durP2;ratioP2;P2;SDS_P1;SDS_P2;PMS_P1;PMS_P2;Temp;Humidity;BMP_temperature;BMP_pressure;BME280_temperature;BME280_humidity;BME280_pressure;Samples;Min_cycle;Max_cycle;Signal;HPM_P1;HPM_P2
2023/02/18 00:01:19;;;;;;;15.53;10.33;;;;;;;6.23;65.89;95616.13;5093396;28;20831;-76
2023/02/18 00:03:45;;;;;;;22.20;9.83;;;;;;;6.18;66.02;95619.00;5093451;28;20470;-75
2023/02/18 00:06:13;;;;;;;13.97;9.40;;;;;;;6.17;66.69;95612.13;5093680;28;20448;-76
2023/02/18 00:08:41;;;;;;;16.33;10.43;;;;;;;6.11;66.23;95614.22;5093282;28;20487;-75
2023/02/18 00:11:08;;;;;;;14.20;9.27;;;;;;;6.10;66.32;95616.00;5093395;28;20845;-75
2023/02/18 00:13:36;;;;;;;13.27;9.83;;;;;;;6.10;66.32;95604.75;5093276;28;20436;-75
2023/02/18 00:16:04;;;;;;;19.90;11.07;;;;;;;6.09;66.77;95600.44;5092921;28;20512;-75
2023/02/18 00:18:31;;;;;;;13.87;8.90;;;;;;;6.09;66.48;95593.47;5093102;28;20759;-75
2023/02/18 00:20:58;;;;;;;13.70;9.90;;;;;;;6.09;66.17;95592.63;5093085;28;20435;-76
2023/02/18 00:23:25;;;;;;;15.27;9.77;;;;;;;6.06;67.09;95591.00;5092889;28;20496;-75
2023/02/18 00:25:59;;;;;;;15.60;9.50;;;;;;;6.06;67.11;95580.59;5092659;28;20529;-75
2023/02/18 00:28:27;;;;;;;15.60;10.07;;;;;;;6.07;66.59;95584.91;5092862;28;20485;-75
2023/02/18 00:30:55;;;;;;;16.43;9.90;;;;;;;6.04;67.10;95571.19;5092674;28;20522;-75
2023/02/18 00:33:22;;;;;;;17.17;10.17;;;;;;;6.06;67.76;95564.97;5092849;28;20470;-77
2023/02/18 00:35:49;;;;;;;15.60;10.40;;;;;;;6.00;67.38;95561.88;5092727;28;20439;-75
2023/02/18 00:38:16;;;;;;;19.20;9.23;;;;;;;6.01;67.84;95558.34;5057570;28;20452;-74
2023/02/18 00:40:43;;;;;;;21.57;11.40;;;;;;;6.00;67.13;95551.44;5092908;28;20534;-76
2023/02/18 00:43:10;;;;;;;13.30;9.00;;;;;;;6.01;67.10;95556.56;5092979;28;20443;-75
2023/02/18 00:45:37;;;;;;;14.70;9.77;;;;;;;6.00;67.25;95560.09;5092772;28;20450;-76
2023/02/18 00:48:05;;;;;;;13.63;9.60;;;;;;;5.88;67.65;95559.00;5092951;28;20494;-75
2023/02/18 00:50:32;;;;;;;18.27;9.87;;;;;;;5.85;68.07;95551.38;5073451;28;20485;-75
2023/02/18 00:52:59;;;;;;;18.13;11.23;;;;;;;5.81;67.53;95556.84;5092641;28;20488;-75
2023/02/18 00:55:26;;;;;;;18.03;10.43;;;;;;;5.80;67.44;95560.38;5057085;28;20443;-75
2023/02/18 00:57:52;;;;;;;16.17;10.63;;;;;;;5.79;67.52;95563.91;5056866;28;20474;-75
2023/02/18 01:00:19;;;;;;;20.03;11.10;;;;;;;5.74;68.23;95555.47;5092869;28;20504;-75
2023/02/18 01:02:46;;;;;;;18.27;11.30;;;;;;;5.71;68.49;95555.63;5056767;28;20428;-75
2023/02/18 01:05:14;;;;;;;15.43;9.70;;;;;;;5.70;68.73;95564.38;5092728;28;20437;-75
2023/02/18 01:07:41;;;;;;;19.93;10.77;;;;;;;5.60;68.35;95564.88;5092483;28;20528;-75
2023/02/18 01:10:08;;;;;;;16.10;11.23;;;;;;;5.59;68.72;95570.19;5092576;28;20502;-75
2023/02/18 01:12:35;;;;;;;14.40;9.93;;;;;;;5.59;68.87;95557.16;5095132;28;20455;-75
2023/02/18 01:15:02;;;;;;;11.87;9.13;;;;;;;5.63;68.76;95563.88;5096571;28;20754;-75
2023/02/18 01:17:29;;;;;;;17.37;9.53;;;;;;;5.65;68.86;95561.19;5096714;28;20548;-75
2023/02/18 01:19:56;;;;;;;14.83;9.60;;;;;;;5.66;67.87;95557.66;5096338;28;20576;-75
2023/02/18 01:22:24;;;;;;;13.07;9.10;;;;;;;5.66;68.37;95562.88;5096397;28;20844;-75
2023/02/18 01:24:51;;;;;;;13.83;10.20;;;;;;;5.63;68.08;95563.88;5096369;28;20479;-76
2023/02/18 01:27:18;;;;;;;12.93;8.70;;;;;;;5.64;67.90;95559.50;5096702;28;20544;-75
2023/02/18 01:29:44;;;;;;;11.90;8.90;;;;;;;5.61;67.76;95557.91;5096274;28;20450;-75
2023/02/18 01:32:11;;;;;;;17.07;11.30;;;;;;;5.56;68.37;95559.94;5096300;28;21226;-75
2023/02/18 01:34:38;;;;;;;25.90;10.47;;;;;;;5.53;68.22;95547.94;5096089;28;20443;-75
2023/02/18 01:37:05;;;;;;;16.90;11.00;;;;;;;5.49;68.25;95548.16;5096326;28;20447;-76
2023/02/18 01:39:33;;;;;;;18.97;10.87;;;;;;;5.51;69.26;95551.56;5096025;28;20523;-76
2023/02/18 01:41:59;;;;;;;17.70;11.50;;;;;;;5.48;69.26;95554.28;5096040;28;20500;-76
2023/02/18 01:44:28;;;;;;;14.07;9.40;;;;;;;5.41;69.88;95551.19;5096003;28;20989;-76
2023/02/18 01:46:55;;;;;;;16.33;11.50;;;;;;;5.38;69.78;95548.75;5095839;28;20451;-76
2023/02/18 01:49:26;;;;;;;16.73;10.70;;;;;;;5.34;70.52;95562.84;5060409;28;20778;-76
2023/02/18 01:51:57;;;;;;;14.60;10.53;;;;;;;5.23;71.47;95563.44;5095653;28;21136;-76
2023/02/18 01:54:29;;;;;;;20.50;11.33;;;;;;;5.14;72.05;95557.84;5096087;28;20451;-76
2023/02/18 01:57:02;;;;;;;15.53;10.37;;;;;;;5.13;70.76;95564.81;5095789;28;20803;-76
2023/02/18 01:59:33;;;;;;;24.40;11.50;;;;;;;5.08;72.00;95572.03;5096098;28;20440;-76
2023/02/18 02:02:01;;;;;;;18.40;11.17;;;;;;;5.10;71.45;95574.56;5095562;28;20934;-76
2023/02/18 02:04:27;;;;;;;18.50;11.70;;;;;;;5.09;71.84;95578.06;5095546;28;20440;-76
2023/02/18 02:06:54;;;;;;;17.47;11.60;;;;;;;5.09;72.08;95572.88;5095700;28;20450;-76
2023/02/18 02:09:24;;;;;;;19.17;11.00;;;;;;;5.03;71.62;95578.41;5095757;28;20483;-76
2023/02/18 02:12:16;;;;;;;17.20;10.67;;;;;;;4.94;72.54;95570.16;5095492;28;20444;-76
2023/02/18 02:15:16;;;;;;;21.97;10.07;;;;;;;4.85;72.41;95559.38;5032884;28;20451;-76
2023/02/18 02:17:55;;;;;;;16.23;10.20;;;;;;;4.80;73.36;95559.63;4954427;29;20445;-76
2023/02/18 02:21:00;;;;;;;18.57;11.90;;;;;;;4.76;73.05;95549.47;4954521;29;20882;-76
2023/02/18 02:24:05;;;;;;;18.00;11.40;;;;;;;4.69;72.60;95558.50;4933956;29;20494;-76
2023/02/18 02:26:59;;;;;;;15.67;9.50;;;;;;;4.70;73.90;95553.22;4916146;29;20547;-76
2023/02/18 02:30:07;;;;;;;14.30;10.03;;;;;;;4.67;73.68;95563.78;4916186;29;20556;-76
2023/02/18 02:32:59;;;;;;;18.37;10.60;;;;;;;4.68;74.07;95559.41;4859959;29;20518;-76
2023/02/18 02:35:31;;;;;;;18.20;9.83;;;;;;;4.69;74.47;95556.75;4814130;29;20462;-76
2023/02/18 02:38:05;;;;;;;12.97;9.13;;;;;;;4.74;74.13;95552.16;4859704;29;20950;-76
2023/02/18 02:40:38;;;;;;;16.97;10.17;;;;;;;4.79;74.73;95550.16;4859921;29;20454;-77
2023/02/18 02:43:13;;;;;;;17.67;9.93;;;;;;;4.87;73.34;95537.56;4859879;29;20962;-76
2023/02/18 02:45:51;;;;;;;13.80;9.30;;;;;;;4.91;73.05;95538.25;4859854;29;20454;-76
2023/02/18 02:48:25;;;;;;;10.87;8.63;;;;;;;4.95;72.23;95529.41;4859727;29;20906;-76
2023/02/18 02:51:02;;;;;;;13.30;9.83;;;;;;;4.98;72.29;95535.28;4863873;29;20530;-77
2023/02/18 02:53:33;;;;;;;14.00;9.03;;;;;;;4.97;72.13;95528.41;4915971;29;20466;-76
2023/02/18 02:56:00;;;;;;;18.80;10.07;;;;;;;4.95;72.76;95525.03;4966455;28;20456;-76
2023/02/18 02:58:27;;;;;;;16.33;9.50;;;;;;;4.96;72.15;95531.06;4973439;28;20522;-76
2023/02/18 03:01:13;;;;;;;14.20;8.83;;;;;;;5.00;72.08;95526.56;4988419;28;20506;-76
2023/02/18 03:04:05;;;;;;;12.80;7.57;;;;;;;5.02;71.98;95527.31;5010403;28;20995;-76
2023/02/18 03:06:57;;;;;;;11.27;8.93;;;;;;;5.07;71.93;95533.09;5032205;28;20446;-76
2023/02/18 03:09:35;;;;;;;18.87;8.90;;;;;;;5.09;71.26;95537.28;4977058;28;20495;-77
2023/02/18 03:12:08;;;;;;;12.13;8.80;;;;;;;5.13;71.34;95548.38;4963297;28;20882;-76
2023/02/18 03:14:44;;;;;;;14.80;8.30;;;;;;;5.08;71.15;95545.19;5011918;28;20541;-76
2023/02/18 03:17:16;;;;;;;14.73;8.60;;;;;;;5.08;70.89;95545.19;5011805;28;20455;-76
2023/02/18 03:19:50;;;;;;;17.23;9.47;;;;;;;5.12;70.25;95555.34;5011882;28;20451;-76
2023/02/18 03:22:23;;;;;;;10.73;8.30;;;;;;;5.03;70.87;95552.41;5011612;28;20451;-76
2023/02/18 03:24:53;;;;;;;16.00;9.43;;;;;;;5.02;71.53;95556.75;4979744;28;20977;-76
2023/02/18 03:27:24;;;;;;;16.90;10.70;;;;;;;4.45;72.54;95570.97;5011679;28;20958;-76
2023/02/18 03:29:55;;;;;;;14.97;10.53;;;;;;;4.20;73.41;95568.75;5011751;28;20491;-76
2023/02/18 03:32:23;;;;;;;15.43;10.07;;;;;;;4.23;74.09;95577.22;5011637;28;20451;-76
2023/02/18 03:34:54;;;;;;;16.27;10.60;;;;;;;4.09;73.61;95584.84;5011387;28;21167;-76
2023/02/18 03:37:23;;;;;;;21.33;12.10;;;;;;;3.91;74.55;95601.31;5011499;28;20455;-76
2023/02/18 03:39:55;;;;;;;27.27;16.00;;;;;;;3.73;75.99;95600.41;5011521;28;20915;-76
2023/02/18 03:42:25;;;;;;;20.77;14.10;;;;;;;3.70;76.46;95603.16;5011517;28;20443;-76
2023/02/18 03:44:52;;;;;;;24.50;15.30;;;;;;;3.71;75.80;95605.66;5011501;28;20501;-77
2023/02/18 03:47:19;;;;;;;28.30;14.20;;;;;;;3.73;75.76;95605.59;5073702;28;20439;-76
2023/02/18 03:49:46;;;;;;;20.70;13.10;;;;;;;3.84;75.35;95615.50;5074409;28;20548;-76
2023/02/18 03:52:13;;;;;;;23.37;13.83;;;;;;;3.94;75.31;95612.38;5093634;28;20477;-76
2023/02/18 03:54:41;;;;;;;21.73;13.70;;;;;;;3.97;75.02;95616.59;5093863;28;20443;-76
2023/02/18 03:57:08;;;;;;;26.43;13.30;;;;;;;4.08;75.34;95621.28;5093473;28;20443;-76
2023/02/18 03:59:34;;;;;;;23.00;13.47;;;;;;;4.15;75.04;95623.50;5093633;28;20505;-76
2023/02/18 04:02:01;;;;;;;20.83;11.60;;;;;;;4.19;75.54;95613.81;5091696;28;20512;-76
2023/02/18 04:04:28;;;;;;;19.63;10.60;;;;;;;4.19;74.93;95606.84;5073421;28;20531;-76
2023/02/18 04:06:55;;;;;;;19.10;10.77;;;;;;;4.22;75.40;95606.72;5073151;28;20506;-76
2023/02/18 04:09:22;;;;;;;20.13;11.00;;;;;;;4.25;75.14;95603.13;5073190;28;20525;-76
2023/02/18 04:11:50;;;;;;;16.17;11.13;;;;;;;4.30;74.60;95599.38;5072929;28;20569;-76
2023/02/18 04:14:17;;;;;;;17.50;10.03;;;;;;;4.31;75.22;95588.06;5073070;28;20452;-77
2023/02/18 04:16:44;;;;;;;17.87;9.40;;;;;;;4.35;75.73;95589.63;5072931;28;20441;-76
2023/02/18 04:19:11;;;;;;;16.37;9.80;;;;;;;4.37;75.10;95579.16;5072909;28;20497;-76
2023/02/18 04:21:37;;;;;;;16.93;10.13;;;;;;;4.36;74.25;95577.47;5072739;28;20448;-76
2023/02/18 04:24:04;;;;;;;11.60;8.80;;;;;;;4.39;74.64;95579.06;5037008;28;20490;-76
2023/02/18 04:26:31;;;;;;;17.47;10.47;;;;;;;4.40;74.88;95567.78;5072929;28;20479;-76
2023/02/18 04:28:59;;;;;;;14.23;9.50;;;;;;;4.43;74.85;95565.84;5073046;28;20480;-76
2023/02/18 04:31:26;;;;;;;13.07;8.97;;;;;;;4.45;75.23;95556.22;5053872;28;20436;-76
2023/02/18 04:33:53;;;;;;;13.60;9.23;;;;;;;4.50;74.51;95561.19;5072805;28;20854;-76
2023/02/18 04:36:20;;;;;;;17.30;8.87;;;;;;;4.54;74.48;95560.94;5087073;28;20452;-77
2023/02/18 04:38:46;;;;;;;16.43;9.77;;;;;;;4.57;74.48;95570.34;5053706;28;20460;-76
2023/02/18 04:41:13;;;;;;;12.23;10.20;;;;;;;4.58;73.66;95566.81;5072656;28;20456;-76
2023/02/18 04:43:40;;;;;;;14.10;10.03;;;;;;;4.58;73.35;95572.03;5072433;28;20440;-76
2023/02/18 04:46:08;;;;;;;15.50;9.50;;;;;;;4.29;74.67;95561.31;5071780;28;20448;-76
2023/02/18 04:48:35;;;;;;;16.43;10.63;;;;;;;4.34;75.06;95572.34;5072253;28;20534;-75
2023/02/18 04:51:02;;;;;;;19.10;11.53;;;;;;;4.38;74.18;95573.03;5072819;28;20466;-76
2023/02/18 04:53:29;;;;;;;15.03;10.70;;;;;;;4.40;74.57;95579.00;5072293;28;20467;-76
2023/02/18 04:55:55;;;;;;;16.67;9.47;;;;;;;4.43;74.13;95578.84;5072277;28;20452;-76
2023/02/18 04:58:22;;;;;;;15.83;10.20;;;;;;;4.39;74.03;95573.88;5072306;28;20448;-76
2023/02/18 05:00:49;;;;;;;15.93;9.50;;;;;;;4.35;73.96;95581.84;5072190;28;20578;-76
2023/02/18 05:03:17;;;;;;;16.53;9.97;;;;;;;4.32;74.32;95587.16;5086760;28;20445;-76
2023/02/18 05:05:44;;;;;;;16.93;9.87;;;;;;;4.27;74.50;95577.91;5072350;28;20476;-76
2023/02/18 05:08:11;;;;;;;20.87;12.13;;;;;;;4.27;75.69;95589.13;5072211;28;20493;-76
2023/02/18 05:10:39;;;;;;;13.43;10.60;;;;;;;4.29;76.21;95589.06;5072232;28;20452;-77
2023/02/18 05:13:05;;;;;;;14.13;9.70;;;;;;;4.28;75.46;95595.16;5072694;28;20839;-76
2023/02/18 05:15:32;;;;;;;11.40;9.80;;;;;;;4.31;75.24;95597.63;5072188;28;20449;-76
2023/02/18 05:17:59;;;;;;;15.67;12.70;;;;;;;4.31;75.14;95590.66;5072163;28;20562;-76
2023/02/18 05:20:27;;;;;;;18.13;12.30;;;;;;;4.26;76.05;95590.06;5071960;28;20506;-76
2023/02/18 05:22:54;;;;;;;16.77;10.20;;;;;;;4.25;75.94;95577.97;5072288;28;20443;-76
2023/02/18 05:25:21;;;;;;;19.33;11.40;;;;;;;4.26;75.95;95591.81;5071993;28;20498;-77
2023/02/18 05:27:47;;;;;;;15.30;9.80;;;;;;;4.25;76.03;95585.78;5072359;28;20501;-76
2023/02/18 05:30:14;;;;;;;19.10;11.00;;;;;;;4.29;75.25;95597.69;5072450;28;20488;-77
2023/02/18 05:32:41;;;;;;;18.33;10.90;;;;;;;4.30;76.72;95582.94;5072365;28;20452;-77
2023/02/18 05:35:08;;;;;;;16.73;10.53;;;;;;;4.26;75.29;95565.84;5071881;28;20449;-76
2023/02/18 05:37:36;;;;;;;17.03;9.80;;;;;;;4.24;75.76;95563.31;5072222;28;20518;-76
2023/02/18 05:40:04;;;;;;;15.40;10.67;;;;;;;4.29;76.36;95571.72;5072020;28;20449;-75
2023/02/18 05:42:31;;;;;;;15.87;9.77;;;;;;;4.38;76.08;95574.81;5071992;28;20452;-76
2023/02/18 05:44:58;;;;;;;14.00;9.27;;;;;;;4.46;76.00;95583.03;5071780;28;20448;-76
2023/02/18 05:47:25;;;;;;;18.97;10.23;;;;;;;4.52;75.96;95582.72;5071647;28;20498;-77
2023/02/18 05:49:52;;;;;;;17.70;8.70;;;;;;;4.59;76.22;95590.13;5072111;28;20480;-76
2023/02/18 05:52:19;;;;;;;14.60;9.97;;;;;;;4.64;75.47;95582.97;5072101;28;20452;-76
2023/02/18 05:54:47;;;;;;;12.60;9.17;;;;;;;4.73;75.36;95581.66;5072072;28;20971;-77
2023/02/18 05:57:14;;;;;;;20.97;10.47;;;;;;;4.79;73.65;95591.75;5072137;28;20494;-76
2023/02/18 05:59:41;;;;;;;19.90;10.50;;;;;;;4.39;74.52;95590.31;5075723;28;20443;-77
2023/02/18 06:02:08;;;;;;;16.83;10.37;;;;;;;4.40;74.63;95597.19;5075636;28;20453;-77
2023/02/18 06:04:35;;;;;;;14.37;9.97;;;;;;;4.49;75.49;95604.53;5075935;28;20456;-78
2023/02/18 06:07:02;;;;;;;15.30;9.77;;;;;;;4.60;74.89;95603.97;5075726;28;20439;-76
2023/02/18 06:09:28;;;;;;;15.20;10.00;;;;;;;4.73;74.74;95605.06;5075053;28;20798;-75
2023/02/18 06:11:57;;;;;;;19.03;11.20;;;;;;;4.90;76.11;95607.63;5075383;28;20569;-75
2023/02/18 06:14:24;;;;;;;16.77;12.73;;;;;;;5.04;74.12;95601.72;5075085;28;20455;-75
2023/02/18 06:16:50;;;;;;;18.17;12.03;;;;;;;5.15;75.36;95593.34;5056409;28;20486;-75
2023/02/18 06:19:17;;;;;;;18.97;12.13;;;;;;;5.27;73.84;95603.97;5074945;28;20519;-74
2023/02/18 06:21:44;;;;;;;24.23;13.83;;;;;;;5.39;72.95;95609.44;5075188;28;20862;-75
2023/02/18 06:24:11;;;;;;;26.57;16.73;;;;;;;5.19;73.68;95595.72;5074723;28;20868;-75
2023/02/18 06:26:37;;;;;;;31.90;18.97;;;;;;;5.26;73.11;95591.06;5074954;28;20502;-75
2023/02/18 06:29:06;;;;;;;108.43;44.00;;;;;;;5.38;74.06;95600.78;5055826;28;20556;-74
2023/02/18 06:31:32;;;;;;;155.90;60.00;;;;;;;5.39;73.46;95594.66;5055800;28;20506;-75
2023/02/18 06:33:59;;;;;;;94.10;39.63;;;;;;;5.48;72.84;95591.56;5074823;28;20505;-75
2023/02/18 06:36:26;;;;;;;47.23;23.90;;;;;;;5.57;74.46;95591.09;5074795;28;20462;-76
2023/02/18 06:38:55;;;;;;;108.17;40.77;;;;;;;5.64;73.72;95589.00;5074807;28;20445;-75
2023/02/18 06:41:21;;;;;;;69.30;30.50;;;;;;;5.78;74.13;95583.00;5074442;28;20539;-75
2023/02/18 06:43:48;;;;;;;96.83;48.10;;;;;;;5.82;71.98;95572.38;5074500;28;20502;-76
2023/02/18 06:46:16;;;;;;;120.03;55.30;;;;;;;5.93;71.54;95581.38;5074542;28;20514;-75
2023/02/18 06:48:43;;;;;;;63.80;33.13;;;;;;;6.04;72.27;95582.44;5074429;28;20505;-76
2023/02/18 06:51:10;;;;;;;35.03;21.37;;;;;;;6.15;72.61;95585.31;5074242;28;20449;-76
2023/02/18 06:53:37;;;;;;;37.00;21.50;;;;;;;6.21;70.14;95586.72;5074428;28;20440;-74
2023/02/18 06:56:04;;;;;;;34.20;21.57;;;;;;;6.27;69.80;95575.09;5074774;28;20448;-74
2023/02/18 06:58:31;;;;;;;29.07;21.33;;;;;;;6.32;69.77;95567.88;5074443;28;20449;-75
2023/02/18 07:00:57;;;;;;;32.13;18.33;;;;;;;6.37;69.95;95571.06;5074498;28;20448;-75
2023/02/18 07:03:26;;;;;;;26.90;13.43;;;;;;;6.41;68.75;95567.34;5074553;28;20441;-75
2023/02/18 07:05:53;;;;;;;22.00;11.67;;;;;;;6.52;68.64;95572.78;5074246;28;20916;-75
2023/02/18 07:08:19;;;;;;;25.17;14.53;;;;;;;6.55;68.72;95570.00;5074216;28;20860;-76
2023/02/18 07:10:46;;;;;;;27.30;14.97;;;;;;;6.73;68.24;95584.56;5073411;28;20893;-76
2023/02/18 07:13:14;;;;;;;26.20;16.07;;;;;;;6.76;67.31;95583.56;5038465;28;20429;-74
2023/02/18 07:15:40;;;;;;;28.20;15.90;;;;;;;6.81;68.00;95584.94;5074162;28;20868;-75
2023/02/18 07:18:07;;;;;;;26.13;15.83;;;;;;;6.97;68.15;95568.41;5074183;28;20437;-75
2023/02/18 07:20:35;;;;;;;29.90;15.80;;;;;;;6.89;68.02;95574.06;5073912;28;20585;-77
2023/02/18 07:23:02;;;;;;;24.60;15.63;;;;;;;7.06;67.94;95570.47;5073848;28;20498;-78
2023/02/18 07:25:29;;;;;;;30.33;17.13;;;;;;;6.99;67.29;95574.38;5073890;28;20475;-75
2023/02/18 07:27:55;;;;;;;27.17;17.37;;;;;;;7.02;66.55;95569.81;5074125;28;20448;-75
2023/02/18 07:30:22;;;;;;;28.77;16.13;;;;;;;7.27;66.16;95574.38;5073500;28;21269;-75
2023/02/18 07:32:49;;;;;;;26.10;16.83;;;;;;;7.09;65.50;95560.66;5073814;28;20446;-75
2023/02/18 07:35:17;;;;;;;26.53;18.57;;;;;;;7.28;66.30;95564.78;5088048;28;20448;-76
2023/02/18 07:37:49;;;;;;;30.53;18.30;;;;;;;7.32;66.34;95564.50;5073735;28;20441;-74
2023/02/18 07:40:20;;;;;;;30.87;18.77;;;;;;;7.37;64.99;95579.88;5074154;28;20453;-77
2023/02/18 07:42:47;;;;;;;27.80;17.90;;;;;;;7.25;64.33;95573.66;5073647;28;20421;-79
2023/02/18 07:45:14;;;;;;;28.27;17.20;;;;;;;7.32;64.72;95587.16;5073595;28;20668;-77
2023/02/18 07:47:41;;;;;;;32.83;16.00;;;;;;;7.26;63.92;95584.94;5073738;28;20467;-77
2023/02/18 07:50:09;;;;;;;25.33;15.10;;;;;;;7.17;64.00;95590.69;5073450;28;20575;-76
2023/02/18 07:52:36;;;;;;;30.63;18.60;;;;;;;7.27;64.58;95590.03;5073325;28;20445;-77
2023/02/18 07:55:05;;;;;;;27.77;15.67;;;;;;;7.46;64.73;95595.81;5072988;28;20449;-76
2023/02/18 07:57:31;;;;;;;24.80;15.70;;;;;;;7.63;63.57;95596.56;5073445;28;20445;-75
2023/02/18 07:59:58;;;;;;;26.93;16.00;;;;;;;7.75;61.55;95593.16;5073208;28;20510;-74
2023/02/18 08:02:25;;;;;;;28.83;14.93;;;;;;;7.90;60.91;95599.22;5074026;28;20451;-77
2023/02/18 08:04:52;;;;;;;23.70;15.67;;;;;;;8.03;60.52;95606.19;5075277;28;20453;-75
2023/02/18 08:07:21;;;;;;;24.27;14.10;;;;;;;8.11;59.59;95589.19;5073827;28;20450;-75
2023/02/18 08:09:49;;;;;;;27.63;15.37;;;;;;;8.29;59.81;95590.59;5073404;28;20687;-75
2023/02/18 08:12:17;;;;;;;31.33;16.77;;;;;;;8.46;59.53;95576.47;5072963;28;20931;-75
2023/02/18 08:14:44;;;;;;;28.60;15.87;;;;;;;8.43;58.39;95579.31;5072901;28;21135;-79
2023/02/18 08:17:11;;;;;;;21.97;16.23;;;;;;;8.62;58.60;95587.59;5073097;28;20449;-75
2023/02/18 08:19:38;;;;;;;23.10;15.60;;;;;;;8.88;58.24;95586.72;5087379;28;20452;-76
2023/02/18 08:22:04;;;;;;;28.77;15.53;;;;;;;9.10;58.31;95575.63;5052966;28;20476;-75
2023/02/18 08:24:31;;;;;;;22.37;13.03;;;;;;;9.31;56.24;95571.56;5072772;28;20474;-75
2023/02/18 08:26:58;;;;;;;27.50;13.37;;;;;;;9.44;55.15;95568.91;5072897;28;20450;-75
2023/02/18 08:29:27;;;;;;;20.27;12.87;;;;;;;9.66;55.26;95575.28;5072736;28;21180;-75
2023/02/18 08:31:55;;;;;;;19.90;11.47;;;;;;;9.89;54.09;95575.34;5072831;28;20768;-74
2023/02/18 08:34:22;;;;;;;27.23;14.60;;;;;;;10.17;54.45;95571.56;5072534;28;20536;-74
2023/02/18 08:36:49;;;;;;;23.03;12.73;;;;;;;10.35;53.51;95560.72;5072662;28;20452;-76
2023/02/18 08:39:16;;;;;;;22.30;13.30;;;;;;;10.50;52.65;95563.06;5072850;28;20441;-76
2023/02/18 08:41:43;;;;;;;23.07;13.57;;;;;;;10.48;52.08;95559.72;5072864;28;20456;-77
2023/02/18 08:44:09;;;;;;;20.00;12.53;;;;;;;10.55;52.73;95553.06;5053759;28;20437;-77
2023/02/18 08:46:37;;;;;;;24.53;15.30;;;;;;;10.61;52.23;95543.03;5072587;28;20506;-76
2023/02/18 08:49:05;;;;;;;20.10;13.30;;;;;;;10.65;51.53;95542.69;5072540;28;20452;-75
2023/02/18 08:51:32;;;;;;;20.87;13.30;;;;;;;10.58;51.86;95543.28;5072371;28;20484;-75
2023/02/18 08:53:58;;;;;;;16.10;12.50;;;;;;;10.64;51.04;95554.16;5072365;28;20445;-75
2023/02/18 08:56:25;;;;;;;15.90;11.60;;;;;;;10.60;50.59;95544.84;5072769;28;20450;-75
2023/02/18 08:58:52;;;;;;;31.27;18.47;;;;;;;10.48;50.32;95546.59;5072276;28;20481;-76
2023/02/18 09:01:19;;;;;;;27.40;15.73;;;;;;;10.43;51.40;95559.22;5072234;28;20842;-75
2023/02/18 09:03:47;;;;;;;21.63;14.80;;;;;;;10.25;52.50;95560.56;5053223;28;20531;-74
2023/02/18 09:06:14;;;;;;;20.70;13.53;;;;;;;10.05;52.53;95561.13;5072483;28;20539;-75
2023/02/18 09:08:41;;;;;;;21.47;12.43;;;;;;;10.11;52.89;95561.50;5072821;28;20447;-75
2023/02/18 09:11:09;;;;;;;23.93;14.13;;;;;;;10.17;51.98;95562.88;5072399;28;20537;-74
2023/02/18 09:13:36;;;;;;;22.67;14.60;;;;;;;10.27;56.13;95563.91;5072409;28;20867;-79
2023/02/18 09:16:05;;;;;;;25.47;14.27;;;;;;;10.27;51.89;95571.78;5086775;28;20834;-76
2023/02/18 09:18:34;;;;;;;23.07;12.77;;;;;;;10.13;52.30;95575.38;5072459;28;20446;-75
2023/02/18 09:21:04;;;;;;;25.60;14.00;;;;;;;10.28;52.68;95565.56;5072470;28;20455;-75
2023/02/18 09:23:32;;;;;;;25.43;12.93;;;;;;;10.45;51.40;95567.81;5072305;28;20826;-75
2023/02/18 09:26:00;;;;;;;30.40;15.50;;;;;;;10.59;51.75;95555.44;5072260;28;20487;-74
2023/02/18 09:28:27;;;;;;;22.33;12.53;;;;;;;10.48;50.50;95551.84;5072349;28;21054;-74
2023/02/18 09:30:54;;;;;;;29.80;13.70;;;;;;;10.69;50.32;95561.69;5072271;28;20483;-75
2023/02/18 09:33:20;;;;;;;17.40;11.37;;;;;;;10.86;51.06;95559.47;5074420;28;20444;-74
2023/02/18 09:35:47;;;;;;;24.40;13.07;;;;;;;10.95;49.40;95557.94;5075971;28;20498;-75
2023/02/18 09:38:17;;;;;;;25.07;13.23;;;;;;;10.94;49.56;95540.50;5075928;28;20820;-75
2023/02/18 09:40:53;;;;;;;23.20;14.97;;;;;;;10.94;48.87;95539.66;5075808;28;20919;-75
2023/02/18 09:43:26;;;;;;;18.87;12.20;;;;;;;11.14;49.32;95529.34;5075725;28;20884;-75
2023/02/18 09:45:54;;;;;;;20.63;12.23;;;;;;;11.18;48.16;95532.56;5075989;28;20436;-75
2023/02/18 09:48:27;;;;;;;23.93;12.20;;;;;;;11.25;48.16;95527.66;5056039;28;20444;-75
2023/02/18 09:50:54;;;;;;;23.23;14.03;;;;;;;11.42;47.44;95529.81;5074865;28;20484;-74
2023/02/18 09:53:24;;;;;;;19.00;12.27;;;;;;;11.51;46.24;95536.16;5075482;28;20510;-75
2023/02/18 09:55:53;;;;;;;20.03;12.93;;;;;;;11.67;46.88;95534.84;5075450;28;20444;-75
2023/02/18 09:58:22;;;;;;;18.83;11.77;;;;;;;11.83;47.42;95537.09;5075371;28;20789;-75
2023/02/18 10:00:52;;;;;;;25.97;12.80;;;;;;;11.95;46.31;95532.69;5075585;28;20459;-75
2023/02/18 10:03:22;;;;;;;28.93;13.70;;;;;;;11.88;46.06;95531.50;5075327;28;20505;-75
2023/02/18 10:05:57;;;;;;;31.70;16.40;;;;;;;11.82;47.49;95524.09;5075103;28;20463;-75
2023/02/18 10:08:28;;;;;;;21.27;14.10;;;;;;;11.79;46.31;95519.91;5074815;28;20444;-75
2023/02/18 10:10:55;;;;;;;31.93;15.17;;;;;;;11.78;47.12;95521.69;5074571;28;20484;-75
2023/02/18 10:13:24;;;;;;;18.23;13.00;;;;;;;11.73;46.38;95515.94;5074775;28;20456;-74
2023/02/18 10:15:52;;;;;;;20.00;13.17;;;;;;;11.78;46.80;95516.44;5074817;28;21154;-75
2023/02/18 10:18:27;;;;;;;27.20;13.60;;;;;;;11.78;46.64;95513.81;5074358;28;20444;-74
2023/02/18 10:21:03;;;;;;;25.23;13.30;;;;;;;11.94;46.15;95517.84;5074449;28;20449;-75
2023/02/18 10:23:34;;;;;;;30.97;14.43;;;;;;;12.07;46.99;95518.53;5074699;28;20448;-75
2023/02/18 10:26:04;;;;;;;26.53;12.73;;;;;;;12.26;46.33;95516.09;5074322;28;20884;-75
2023/02/18 10:28:32;;;;;;;20.20;14.43;;;;;;;12.46;45.08;95511.84;5074220;28;20491;-75
2023/02/18 10:31:03;;;;;;;20.07;13.20;;;;;;;12.59;44.47;95507.22;5074378;28;20561;-75
2023/02/18 10:33:35;;;;;;;20.97;14.27;;;;;;;12.82;45.43;95497.41;5074379;28;20936;-75
2023/02/18 10:36:24;;;;;;;24.40;14.37;;;;;;;12.96;44.55;95497.06;5074408;28;20449;-75
2023/02/18 10:39:08;;;;;;;30.27;14.93;;;;;;;12.75;44.49;95495.44;5074200;28;20505;-76
2023/02/18 10:41:44;;;;;;;18.30;13.60;;;;;;;12.94;44.35;95500.78;5074328;28;20452;-76
2023/02/18 10:44:17;;;;;;;24.13;14.23;;;;;;;13.12;44.63;95493.16;5073218;28;20454;-76
2023/02/18 10:46:52;;;;;;;25.67;13.70;;;;;;;13.30;44.01;95481.91;5074187;28;20441;-75
2023/02/18 10:49:40;;;;;;;17.50;13.20;;;;;;;13.44;43.99;95474.59;5073922;28;20455;-74
2023/02/18 10:52:16;;;;;;;26.73;15.10;;;;;;;13.59;43.53;95471.47;5073949;28;20486;-75
2023/02/18 10:54:58;;;;;;;25.77;15.13;;;;;;;13.68;43.43;95461.06;5073943;28;20452;-76
2023/02/18 10:57:26;;;;;;;29.77;13.37;;;;;;;13.80;43.30;95457.34;5073861;28;20448;-76
2023/02/18 10:59:59;;;;;;;17.90;13.40;;;;;;;13.95;42.51;95443.63;5073470;28;20861;-75
2023/02/18 11:02:29;;;;;;;35.70;13.80;;;;;;;14.02;42.87;95438.63;5073457;28;20931;-75
2023/02/18 11:04:57;;;;;;;25.77;13.00;;;;;;;14.21;42.94;95451.84;5073722;28;21037;-75
2023/02/18 11:07:29;;;;;;;23.37;12.80;;;;;;;14.33;42.38;95439.34;5073678;28;20466;-76
2023/02/18 11:10:00;;;;;;;23.23;13.20;;;;;;;14.15;41.05;95441.00;5073584;28;20450;-76
2023/02/18 11:12:32;;;;;;;25.57;13.00;;;;;;;14.07;41.28;95430.31;5073435;28;20441;-75
2023/02/18 11:15:16;;;;;;;21.20;12.20;;;;;;;14.05;40.93;95426.97;5073861;28;20447;-75
2023/02/18 11:17:44;;;;;;;23.83;13.40;;;;;;;14.11;41.65;95427.25;5073532;28;20536;-75
2023/02/18 11:20:23;;;;;;;24.57;12.53;;;;;;;14.04;41.00;95412.94;5073194;28;20453;-76
2023/02/18 11:22:51;;;;;;;30.80;13.90;;;;;;;14.17;42.42;95415.31;5073309;28;20504;-75
2023/02/18 11:25:24;;;;;;;17.90;12.80;;;;;;;14.19;41.49;95408.94;5038234;28;20477;-75
2023/02/18 11:27:55;;;;;;;28.10;13.30;;;;;;;14.20;41.94;95400.03;5073967;28;20460;-75
2023/02/18 11:30:25;;;;;;;22.13;13.20;;;;;;;14.29;55.24;95389.59;5073705;28;21072;-75
2023/02/18 11:32:56;;;;;;;21.73;13.70;;;;;;;14.53;44.00;95392.66;5073943;28;20450;-75
2023/02/18 11:35:25;;;;;;;20.60;13.17;;;;;;;14.52;42.03;95383.09;5073531;28;20452;-77